Für Piloten

Informationen für Piloten zum Flugplatz Borken-Hoxfeld
Hier findest Du alle relevanten Informationen, die Du als Pilot benötigst, um Borken-Hoxfeld anzufliegen.

Flugplatz: Borken-Hoxfeld ICAO-Code: EDLY
Borken-Hoxfeld Info: 122,930 Mhz
GAFOR Gebiet: 32
Platzrunde: Motorflug; -> Südplatzrunde; Segelflug; -> Nordplatzrunde;
Landegebühr: z.Zt. 5,00 Euro
Platzhöhe: 48m üMSL
Pisten: 12/30 – 740 m x 30 m, GRAS
Betriebszeiten: PPR (in den Sommermonaten Mittagspause beachten)

 

Wetterforecast:

Available data for EDDL from the past 2 hours
DUESSELDORF
Metar
EDDL 151650Z 17009KT 130V190 9999 VCSH FEW020 FEW028TCU BKN041 13/08 Q1001 NOSIG

16:50 UTC

Wind: 170° 9kt

Visibility: 9999 m

Sky: FEW 2000 ft

Temp: 13 deg C / 55.4 deg F

Dewpoint: 8 deg C / 46.4 deg F

Pressure: 1001 hPa

TAF
TAF EDDL 151100Z 1512/1618 20012KT 9999 BKN035 TEMPO 1512/1519 SHRA BKN030CB BECMG 1517/1520 20007KT BECMG 1605/1608 22012KT TEMPO 1609/1618 SHRA BKN030CB PROB30 TEMPO 1610/1617 22015G25KT TSRA

Alle obigen Informationen ersetzen nicht die vorgeschriebene, persönliche Flugvorbereitung.